Decoded Metar for KMRY (MONTEREY in CA, USA) (IATA:MRY) | Meteo·Mobile Aviation Weather
aviador You're here:

KMRY Decoded Metar

MONTEREY in CA, USA
Report Time2018-11-18 00:54:00
UTC Time2018-11-18 01:58:11
Flight Rules ifr IFR
WindCalm
Visibility4023 m
Phenomena:Smoke
Haze
Clouds:Overcast 014 Hf
Expected CloudBase > 1,600 ft AGL from Temp-Dew spread
Ceiling1,400 ft
Temp13°C (ISA -2)
Dew Point09°C (77% RH)
AAT12.8°C
QNH1017 hPa
Density Alt52 ft
Elevation217 ft
Report Wrong Elevation
Raw Report
KMRY 180054Z 00000KT 2 1/2SM HZ FU OVC014 13/09 A3003 RMK AO2
SLP181 T01330089=

Extra information for KMRY:More info

Metar Taf Metar & Taf Last 4 Metars F.Rules Stats Wind Profile Meteogram Temp Stats Airport Information Weather charts Add Link Nearby VenuesMetar ALERT Operation Metar Decoded Social comments

AIRNAV info for KMRY